Time;durP1;ratioP1;P1;durP2;ratioP2;P2;SDS_P1;SDS_P2;PMS_P1;PMS_P2;Temp;Humidity;BMP_temperature;BMP_pressure;BME280_temperature;BME280_humidity;BME280_pressure;Samples;Min_cycle;Max_cycle;Signal;HPM_P1;HPM_P2
2021/11/07 00:04:49;;;;;;;16.58;13.73;;;8.70;97.70;;;;;;4945549;28;20515;-65
2021/11/07 00:07:22;;;;;;;23.17;15.00;;;8.70;97.80;;;;;;4933336;28;20037;-65
2021/11/07 00:12:20;;;;;;;22.92;15.43;;;8.70;98.10;;;;;;4957983;28;20043;-65
2021/11/07 00:14:47;;;;;;;23.98;16.15;;;8.60;98.10;;;;;;4931930;28;20031;-66
2021/11/07 00:17:14;;;;;;;20.50;14.05;;;8.60;98.20;;;;;;4953484;28;20078;-66
2021/11/07 00:19:44;;;;;;;18.92;14.85;;;8.60;98.30;;;;;;4951672;28;20081;-65
2021/11/07 00:22:35;;;;;;;19.50;15.60;;;8.70;98.10;;;;;;4957106;28;20118;-66
2021/11/07 00:25:21;;;;;;;26.50;16.65;;;8.70;98.10;;;;;;4950123;28;20045;-65
2021/11/07 00:27:51;;;;;;;17.42;13.70;;;8.60;98.20;;;;;;4951978;28;20031;-66
2021/11/07 00:30:32;;;;;;;18.90;15.02;;;8.60;98.20;;;;;;4944291;28;20428;-65
2021/11/07 00:37:56;;;;;;;20.92;15.07;;;8.60;98.30;;;;;;4954439;28;20086;-66
2021/11/07 00:40:51;;;;;;;19.05;14.25;;;8.70;98.30;;;;;;4950072;28;20383;-65
2021/11/07 00:43:28;;;;;;;17.98;14.05;;;8.60;98.30;;;;;;4951327;28;20217;-65
2021/11/07 00:46:17;;;;;;;19.73;13.75;;;8.70;98.30;;;;;;4952004;28;20030;-65
2021/11/07 00:48:47;;;;;;;18.10;13.52;;;8.70;98.30;;;;;;4948982;28;20090;-66
2021/11/07 00:56:20;;;;;;;18.50;13.48;;;8.70;98.30;;;;;;4946286;28;20027;-66
2021/11/07 01:01:14;;;;;;;19.42;12.23;;;8.70;98.20;;;;;;4949371;28;20029;-66
2021/11/07 01:03:41;;;;;;;16.83;12.70;;;8.70;98.20;;;;;;4948327;28;20550;-65
2021/11/07 01:06:07;;;;;;;13.55;11.05;;;8.70;98.30;;;;;;4934012;28;20044;-66
2021/11/07 01:08:34;;;;;;;14.50;10.40;;;8.80;98.20;;;;;;4947202;28;20038;-66
2021/11/07 01:11:00;;;;;;;17.63;11.77;;;8.70;98.20;;;;;;4956242;28;20113;-66
2021/11/07 01:13:27;;;;;;;13.82;11.38;;;8.70;98.10;;;;;;4952434;28;20359;-66
2021/11/07 01:15:53;;;;;;;14.65;11.35;;;8.70;98.20;;;;;;4948266;28;20024;-66
2021/11/07 01:18:19;;;;;;;15.77;11.38;;;8.70;98.20;;;;;;4950021;28;20015;-66
2021/11/07 01:20:45;;;;;;;13.50;10.50;;;8.80;98.20;;;;;;4943295;28;20062;-65
2021/11/07 01:23:18;;;;;;;13.20;9.50;;;8.80;98.00;;;;;;4948996;28;20404;-66
2021/11/07 01:25:51;;;;;;;14.15;9.80;;;8.80;97.90;;;;;;4951070;28;20031;-66
2021/11/07 01:28:18;;;;;;;10.73;8.38;;;8.80;97.90;;;;;;4948796;28;20049;-65
2021/11/07 01:30:53;;;;;;;14.25;9.50;;;8.80;97.90;;;;;;4949371;28;20074;-66
2021/11/07 01:33:22;;;;;;;12.48;8.95;;;8.80;97.90;;;;;;4949798;28;20167;-66
2021/11/07 01:38:40;;;;;;;12.60;9.45;;;8.80;97.80;;;;;;4951045;28;20469;-66
2021/11/07 01:41:24;;;;;;;12.98;9.70;;;8.80;97.90;;;;;;4951621;28;20026;-66
2021/11/07 01:43:50;;;;;;;9.57;7.93;;;8.80;97.80;;;;;;4948664;28;20089;-66
2021/11/07 01:48:50;;;;;;;14.38;10.15;;;8.90;97.70;;;;;;4948296;28;20519;-66
2021/11/07 01:51:16;;;;;;;15.05;10.70;;;8.80;97.80;;;;;;4946441;28;20031;-65
2021/11/07 01:53:44;;;;;;;14.52;10.15;;;8.80;97.80;;;;;;4953613;28;20026;-66
2021/11/07 01:56:13;;;;;;;13.32;10.27;;;8.80;97.90;;;;;;4946014;28;20045;-66
2021/11/07 01:58:40;;;;;;;12.32;9.35;;;8.80;97.80;;;;;;4943696;28;20114;-66
2021/11/07 02:01:06;;;;;;;13.95;10.52;;;8.90;97.70;;;;;;4948545;28;20351;-66
2021/11/07 02:03:33;;;;;;;12.60;9.63;;;8.80;97.80;;;;;;4953954;28;20463;-65
2021/11/07 02:06:00;;;;;;;10.73;8.25;;;8.80;97.80;;;;;;4948270;28;20034;-65
2021/11/07 02:08:26;;;;;;;12.73;9.52;;;8.90;97.50;;;;;;4947565;28;20027;-65
2021/11/07 02:10:54;;;;;;;11.40;8.80;;;8.90;97.50;;;;;;4924221;28;20039;-66
2021/11/07 02:13:21;;;;;;;12.52;9.50;;;8.90;97.60;;;;;;4924431;28;20372;-65
2021/11/07 02:15:48;;;;;;;14.55;9.27;;;8.90;97.60;;;;;;4938972;28;20027;-64
2021/11/07 02:18:16;;;;;;;11.48;8.63;;;8.90;97.30;;;;;;4954444;28;20054;-63
2021/11/07 02:20:42;;;;;;;12.13;9.00;;;8.90;97.40;;;;;;4955123;28;20367;-64
2021/11/07 02:23:18;;;;;;;10.38;8.90;;;8.90;97.40;;;;;;4943470;28;20465;-63
2021/11/07 02:25:46;;;;;;;12.00;8.55;;;8.80;97.50;;;;;;4959811;28;20432;-65
2021/11/07 02:28:29;;;;;;;12.70;8.13;;;8.90;97.40;;;;;;4949018;28;20475;-64
2021/11/07 02:30:55;;;;;;;13.25;8.75;;;8.90;97.60;;;;;;4950882;28;20130;-64
2021/11/07 02:33:20;;;;;;;10.82;8.65;;;8.80;97.70;;;;;;4948577;28;20134;-64
2021/11/07 02:35:46;;;;;;;12.20;8.13;;;8.80;97.80;;;;;;4947421;28;20114;-64
2021/11/07 02:38:12;;;;;;;12.27;8.85;;;8.80;97.60;;;;;;4954767;28;20215;-65
2021/11/07 02:40:38;;;;;;;12.45;8.52;;;8.90;97.80;;;;;;4987752;23;20043;-79
2021/11/07 02:43:03;;;;;;;9.75;8.00;;;8.90;97.80;;;;;;4961086;28;20059;-80
2021/11/07 02:45:29;;;;;;;11.20;8.52;;;8.80;97.70;;;;;;4967059;28;20019;-79
2021/11/07 02:47:55;;;;;;;10.57;7.70;;;8.90;97.70;;;;;;4952920;28;20034;-79
2021/11/07 02:50:21;;;;;;;12.27;8.27;;;8.90;97.60;;;;;;4944783;28;20330;-80
2021/11/07 02:52:48;;;;;;;10.80;7.72;;;8.90;97.60;;;;;;4944193;28;20031;-79
2021/11/07 02:55:14;;;;;;;11.20;7.75;;;8.90;97.60;;;;;;4930653;29;20027;-80
2021/11/07 02:57:39;;;;;;;13.15;7.88;;;8.90;97.50;;;;;;4926272;28;20062;-79
2021/11/07 03:00:10;;;;;;;8.60;6.68;;;8.90;97.40;;;;;;4944652;28;20153;-79
2021/11/07 03:02:36;;;;;;;9.97;6.73;;;8.90;97.30;;;;;;4943405;28;20404;-79
2021/11/07 03:05:05;;;;;;;7.57;5.88;;;8.90;97.30;;;;;;4936701;28;20283;-80
2021/11/07 03:07:31;;;;;;;8.18;5.90;;;8.90;97.10;;;;;;4927361;29;20448;-79
2021/11/07 03:09:56;;;;;;;7.93;5.05;;;8.80;97.10;;;;;;4940415;28;20169;-79
2021/11/07 03:12:22;;;;;;;7.38;5.20;;;8.80;97.10;;;;;;4940017;28;20047;-80
2021/11/07 03:14:51;;;;;;;7.65;4.70;;;8.80;97.20;;;;;;4946711;28;20110;-79
2021/11/07 03:17:20;;;;;;;6.35;4.35;;;8.70;97.40;;;;;;4935040;29;20372;-80
2021/11/07 03:19:47;;;;;;;5.20;3.65;;;8.80;97.40;;;;;;4944193;28;20055;-79
2021/11/07 03:22:15;;;;;;;5.40;3.63;;;8.80;97.10;;;;;;4953858;28;20061;-79
2021/11/07 03:24:42;;;;;;;5.95;3.92;;;8.70;97.20;;;;;;4947603;28;20042;-78
2021/11/07 03:27:15;;;;;;;5.43;3.30;;;8.70;97.30;;;;;;4944948;28;20038;-79
2021/11/07 03:29:47;;;;;;;4.40;2.85;;;8.80;97.20;;;;;;4928178;28;20096;-79
2021/11/07 03:32:25;;;;;;;4.32;3.17;;;8.80;97.30;;;;;;4940282;28;20400;-79
2021/11/07 03:34:54;;;;;;;6.65;3.42;;;8.80;97.20;;;;;;4943539;28;20027;-80
2021/11/07 03:37:22;;;;;;;5.05;3.90;;;8.80;97.20;;;;;;4932383;29;20046;-80
2021/11/07 03:39:50;;;;;;;5.30;3.40;;;8.80;97.20;;;;;;4952292;28;20039;-78
2021/11/07 03:42:16;;;;;;;6.00;3.97;;;8.80;97.50;;;;;;4948239;28;20086;-80
2021/11/07 03:44:42;;;;;;;5.13;3.70;;;8.80;97.70;;;;;;4941935;28;20122;-79
2021/11/07 03:47:08;;;;;;;5.38;4.28;;;8.80;97.70;;;;;;4941378;28;20082;-80
2021/11/07 03:49:34;;;;;;;7.80;4.80;;;8.80;97.80;;;;;;4947989;28;20079;-80
2021/11/07 03:52:00;;;;;;;5.97;4.30;;;8.70;97.90;;;;;;4966952;28;20062;-80
2021/11/07 03:54:29;;;;;;;5.63;4.40;;;8.80;98.10;;;;;;4957943;28;20035;-79
2021/11/07 03:56:55;;;;;;;6.22;4.65;;;8.70;98.20;;;;;;4943063;28;20050;-79
2021/11/07 03:59:21;;;;;;;11.80;5.35;;;8.70;98.30;;;;;;4939894;29;20785;-79
2021/11/07 04:01:46;;;;;;;6.72;4.82;;;8.80;98.40;;;;;;4948610;28;20139;-79
2021/11/07 04:04:12;;;;;;;8.02;5.43;;;8.80;98.60;;;;;;4944704;28;20031;-79
2021/11/07 04:06:38;;;;;;;7.43;5.35;;;8.80;98.60;;;;;;4927983;28;20310;-78
2021/11/07 04:09:05;;;;;;;7.45;5.63;;;8.80;98.60;;;;;;4956301;28;20102;-78
2021/11/07 04:11:30;;;;;;;6.60;4.97;;;8.80;98.70;;;;;;4936881;29;20035;-80
2021/11/07 04:13:56;;;;;;;8.52;5.90;;;8.80;98.70;;;;;;4956814;28;20204;-79
2021/11/07 04:16:21;;;;;;;7.05;5.43;;;8.80;98.80;;;;;;4932083;29;20028;-80
2021/11/07 04:18:47;;;;;;;8.73;5.93;;;8.80;98.80;;;;;;4932325;28;20359;-79
2021/11/07 04:21:14;;;;;;;10.15;6.10;;;8.80;98.90;;;;;;4924327;29;20054;-80
2021/11/07 04:23:40;;;;;;;11.30;6.30;;;8.70;99.00;;;;;;4960925;28;20032;-79
2021/11/07 04:26:06;;;;;;;9.30;6.20;;;8.80;99.00;;;;;;4927137;29;20524;-79
2021/11/07 04:28:31;;;;;;;9.68;6.50;;;8.80;99.10;;;;;;4930860;29;20476;-78
2021/11/07 04:30:57;;;;;;;10.25;6.57;;;8.90;99.00;;;;;;4949287;28;20100;-79
2021/11/07 04:33:24;;;;;;;9.45;6.50;;;8.90;99.00;;;;;;4957269;28;20091;-79
2021/11/07 04:35:50;;;;;;;9.98;6.72;;;9.00;99.00;;;;;;4959041;28;20314;-80
2021/11/07 04:38:17;;;;;;;8.98;7.07;;;9.00;99.00;;;;;;4937218;29;20028;-80
2021/11/07 04:40:43;;;;;;;11.73;7.47;;;9.00;98.90;;;;;;4949534;28;20032;-80
2021/11/07 04:43:08;;;;;;;13.77;7.35;;;9.00;98.90;;;;;;4943161;28;20517;-80
2021/11/07 04:45:34;;;;;;;10.05;7.40;;;8.90;98.90;;;;;;4947608;28;20448;-80
2021/11/07 04:48:02;;;;;;;10.52;7.88;;;8.90;99.00;;;;;;4950645;28;20039;-80
2021/11/07 04:50:27;;;;;;;12.35;7.57;;;9.00;99.00;;;;;;4954629;28;20051;-80
2021/11/07 04:52:54;;;;;;;10.38;7.70;;;8.90;99.00;;;;;;4946368;28;20230;-81
2021/11/07 04:55:20;;;;;;;14.30;8.07;;;8.90;99.10;;;;;;4946097;28;20026;-77
2021/11/07 04:57:45;;;;;;;13.18;7.40;;;9.00;99.20;;;;;;4933106;28;20441;-78
2021/11/07 05:00:21;;;;;;;12.95;8.18;;;8.90;99.30;;;;;;4926430;28;20463;-78
2021/11/07 05:02:48;;;;;;;12.70;7.93;;;8.90;99.50;;;;;;4928829;28;20561;-78
2021/11/07 05:05:14;;;;;;;17.35;8.05;;;8.90;99.60;;;;;;4949209;28;20385;-77
2021/11/07 05:07:39;;;;;;;12.02;7.70;;;8.90;99.60;;;;;;4941720;28;20043;-76
2021/11/07 05:10:05;;;;;;;10.52;6.05;;;9.00;99.70;;;;;;4945761;28;20075;-79
2021/11/07 05:12:31;;;;;;;7.88;5.22;;;8.90;99.60;;;;;;4924912;29;20031;-79
2021/11/07 05:14:57;;;;;;;8.75;4.38;;;8.90;98.90;;;;;;4961945;28;20077;-78
2021/11/07 05:17:24;;;;;;;7.78;3.65;;;8.90;98.80;;;;;;4943869;28;20031;-78
2021/11/07 05:19:50;;;;;;;8.90;3.75;;;8.90;98.50;;;;;;4926772;28;20035;-78
2021/11/07 05:22:15;;;;;;;6.75;2.70;;;8.80;98.00;;;;;;4926468;29;20031;-77
2021/11/07 05:24:41;;;;;;;5.00;2.33;;;8.90;97.80;;;;;;4931759;28;20370;-77
2021/11/07 05:27:06;;;;;;;5.80;2.17;;;8.90;97.50;;;;;;4926409;29;20051;-77
2021/11/07 05:29:32;;;;;;;7.22;2.20;;;8.80;97.00;;;;;;4932250;29;20062;-78
2021/11/07 05:31:59;;;;;;;9.48;2.65;;;8.80;96.20;;;;;;4938754;28;20046;-79
2021/11/07 05:34:25;;;;;;;9.98;3.17;;;8.80;96.80;;;;;;4933532;29;20027;-79
2021/11/07 05:36:51;;;;;;;9.70;2.38;;;8.80;96.80;;;;;;4933000;28;20456;-78
2021/11/07 05:39:17;;;;;;;14.75;2.47;;;8.70;96.60;;;;;;4940300;28;20031;-78
2021/11/07 05:41:42;;;;;;;11.80;2.08;;;8.60;96.10;;;;;;4946108;28;20039;-78
2021/11/07 05:44:08;;;;;;;16.50;2.63;;;8.50;96.20;;;;;;4960839;28;20088;-78
2021/11/07 05:46:34;;;;;;;9.00;2.05;;;8.40;96.20;;;;;;4941561;28;20035;-81
2021/11/07 05:48:59;;;;;;;11.10;1.95;;;8.30;96.40;;;;;;4932934;29;20034;-81
2021/11/07 05:51:25;;;;;;;13.52;2.35;;;8.10;96.60;;;;;;4946636;28;20023;-80
2021/11/07 05:53:51;;;;;;;11.85;2.47;;;8.10;96.50;;;;;;4950600;28;20537;-80
2021/11/07 05:56:17;;;;;;;12.57;2.33;;;8.10;96.70;;;;;;4933423;29;20087;-80
2021/11/07 05:58:42;;;;;;;12.00;2.55;;;8.10;97.00;;;;;;4948900;28;20576;-81
2021/11/07 06:01:09;;;;;;;18.05;2.78;;;8.10;97.00;;;;;;4938388;28;20035;-79
2021/11/07 06:03:35;;;;;;;11.32;2.13;;;8.00;97.20;;;;;;4943382;28;20035;-81
2021/11/07 06:06:00;;;;;;;15.23;2.58;;;8.00;97.40;;;;;;4943853;28;20188;-81
2021/11/07 06:08:26;;;;;;;17.17;3.17;;;8.00;97.70;;;;;;4962010;28;20046;-80
2021/11/07 06:10:51;;;;;;;13.68;2.65;;;8.00;97.70;;;;;;4944740;28;20422;-81
2021/11/07 06:13:17;;;;;;;21.15;3.03;;;8.10;97.80;;;;;;4952322;28;20051;-80
2021/11/07 06:15:42;;;;;;;13.98;3.55;;;8.10;97.90;;;;;;4939601;28;20035;-80
2021/11/07 06:18:08;;;;;;;8.82;2.95;;;8.10;98.10;;;;;;4931477;29;20023;-80
2021/11/07 06:20:34;;;;;;;16.83;3.95;;;8.20;98.20;;;;;;4947627;28;20035;-80
2021/11/07 06:23:01;;;;;;;13.77;3.90;;;8.30;98.30;;;;;;4933676;28;20039;-80
2021/11/07 06:25:27;;;;;;;19.13;4.32;;;8.50;98.40;;;;;;4949172;28;20113;-80
2021/11/07 06:27:54;;;;;;;12.48;3.63;;;8.50;98.30;;;;;;4935248;28;20520;-80
2021/11/07 06:30:19;;;;;;;16.95;3.80;;;8.60;98.10;;;;;;4947322;28;20097;-80
2021/11/07 06:32:45;;;;;;;16.25;3.88;;;8.70;97.70;;;;;;4956311;28;20043;-81
2021/11/07 06:35:12;;;;;;;21.70;3.63;;;8.70;97.50;;;;;;4929403;29;20027;-80
2021/11/07 06:37:39;;;;;;;19.52;3.28;;;8.70;97.50;;;;;;4955383;28;20047;-80
2021/11/07 06:40:06;;;;;;;16.35;3.13;;;8.70;97.60;;;;;;4947539;28;20046;-80
2021/11/07 06:42:32;;;;;;;16.02;3.30;;;8.70;97.40;;;;;;4942704;28;20131;-81
2021/11/07 06:44:57;;;;;;;15.00;3.03;;;8.70;97.40;;;;;;4954298;28;20195;-80
2021/11/07 06:47:24;;;;;;;21.40;3.40;;;8.70;97.30;;;;;;4929421;29;20055;-81
2021/11/07 06:49:49;;;;;;;14.50;2.97;;;8.60;97.40;;;;;;4931732;28;20024;-78
2021/11/07 06:52:15;;;;;;;17.95;3.53;;;8.70;97.30;;;;;;4943415;28;20066;-80
2021/11/07 06:54:41;;;;;;;21.95;3.08;;;8.70;97.20;;;;;;4926934;28;20098;-80
2021/11/07 06:57:06;;;;;;;13.93;2.60;;;8.60;97.20;;;;;;4953304;28;20066;-81
2021/11/07 06:59:32;;;;;;;8.95;2.53;;;8.70;96.90;;;;;;4953822;28;20078;-78
2021/11/07 07:01:58;;;;;;;14.43;2.70;;;8.70;96.70;;;;;;4941992;28;20041;-81
2021/11/07 07:04:24;;;;;;;17.00;2.85;;;8.70;96.70;;;;;;4933623;29;20042;-81
2021/11/07 07:06:50;;;;;;;19.75;3.17;;;8.70;96.70;;;;;;4946281;28;20027;-80
2021/11/07 07:09:23;;;;;;;17.95;3.10;;;8.70;96.90;;;;;;4931730;29;20037;-81
2021/11/07 07:11:51;;;;;;;13.98;2.72;;;8.70;97.00;;;;;;4940814;28;20047;-81
2021/11/07 07:14:25;;;;;;;12.52;2.80;;;8.70;96.80;;;;;;4955088;28;20223;-82
2021/11/07 07:22:15;;;;;;;20.58;2.88;;;8.60;96.40;;;;;;4941287;28;20103;-80
2021/11/07 07:25:07;;;;;;;15.05;2.88;;;8.60;96.50;;;;;;4931888;28;20027;-81
2021/11/07 07:32:56;;;;;;;15.82;2.67;;;8.50;95.20;;;;;;4948699;28;20150;-81
2021/11/07 07:35:25;;;;;;;15.40;2.55;;;8.50;95.50;;;;;;4954603;28;20019;-81
2021/11/07 07:37:51;;;;;;;19.27;3.15;;;8.60;94.80;;;;;;4931551;28;20138;-81
2021/11/07 07:40:17;;;;;;;20.55;3.15;;;8.60;95.20;;;;;;4943895;28;20055;-81
2021/11/07 07:42:43;;;;;;;18.35;3.20;;;8.60;95.20;;;;;;4943106;28;20524;-82
2021/11/07 07:45:09;;;;;;;14.68;2.78;;;8.70;94.90;;;;;;4944467;28;20042;-80
2021/11/07 07:47:35;;;;;;;15.65;2.70;;;8.70;94.50;;;;;;4945400;28;20056;-80
2021/11/07 07:50:01;;;;;;;14.48;2.63;;;8.80;94.50;;;;;;4934491;29;20055;-81
2021/11/07 07:52:27;;;;;;;12.85;3.30;;;8.80;94.10;;;;;;4945981;28;20086;-82
2021/11/07 07:54:54;;;;;;;16.85;2.33;;;8.80;93.60;;;;;;4949007;28;20102;-82
2021/11/07 07:57:20;;;;;;;15.02;2.80;;;8.80;93.30;;;;;;4943740;28;20032;-82
2021/11/07 07:59:46;;;;;;;15.43;2.70;;;8.80;93.80;;;;;;4931729;28;20042;-81
2021/11/07 08:02:11;;;;;;;15.07;2.38;;;8.70;93.40;;;;;;4959362;28;20047;-81
2021/11/07 08:04:37;;;;;;;11.00;2.33;;;8.70;92.90;;;;;;4948336;28;20035;-82
2021/11/07 08:07:03;;;;;;;14.65;2.58;;;8.60;93.50;;;;;;4946266;28;20027;-83
2021/11/07 08:09:29;;;;;;;11.52;2.17;;;8.60;93.40;;;;;;4928859;29;20062;-81
2021/11/07 08:11:55;;;;;;;15.73;2.58;;;8.50;93.40;;;;;;4950105;28;20058;-82
2021/11/07 08:14:20;;;;;;;16.95;2.60;;;8.60;93.80;;;;;;4929361;29;20070;-83
2021/11/07 08:16:46;;;;;;;15.75;2.65;;;8.70;93.90;;;;;;4922367;28;20453;-82
2021/11/07 08:19:11;;;;;;;14.48;2.72;;;8.80;93.80;;;;;;4950495;28;20028;-82
2021/11/07 08:21:38;;;;;;;13.65;2.35;;;8.80;93.50;;;;;;4948625;28;20046;-82
2021/11/07 08:24:08;;;;;;;9.18;2.63;;;8.90;93.50;;;;;;4957824;28;20032;-82
2021/11/07 08:26:38;;;;;;;16.33;2.33;;;8.80;93.60;;;;;;4952064;28;20036;-83
2021/11/07 08:29:05;;;;;;;11.93;2.35;;;8.70;93.40;;;;;;4950542;28;20039;-83
2021/11/07 08:31:32;;;;;;;16.88;2.90;;;8.70;93.10;;;;;;4929608;29;20031;-82
2021/11/07 08:33:57;;;;;;;21.98;2.85;;;8.70;93.50;;;;;;4943397;28;20389;-81
2021/11/07 08:36:27;;;;;;;11.88;2.00;;;8.60;93.30;;;;;;4943874;28;20039;-82
2021/11/07 08:38:59;;;;;;;12.38;2.45;;;8.70;93.40;;;;;;4949197;28;20027;-81
2021/11/07 08:41:26;;;;;;;10.98;2.33;;;8.80;92.90;;;;;;4949156;23;20380;-77
2021/11/07 09:00:18;;;;;;;13.13;3.03;;;9.20;90.80;;;;;;4959057;28;20045;-76
2021/11/07 09:05:36;;;;;;;12.20;2.47;;;9.10;89.40;;;;;;4960010;28;20042;-76
2021/11/07 09:10:33;;;;;;;11.23;2.35;;;9.00;89.00;;;;;;4955925;28;20073;-75
2021/11/07 09:13:01;;;;;;;10.13;2.15;;;9.00;89.00;;;;;;4950003;28;20104;-76
2021/11/07 09:15:29;;;;;;;10.90;1.77;;;9.10;89.20;;;;;;4956364;28;20089;-76
2021/11/07 09:17:55;;;;;;;12.05;2.63;;;9.30;88.70;;;;;;4963803;28;20027;-76
2021/11/07 09:20:29;;;;;;;12.50;2.72;;;9.30;89.20;;;;;;4959912;28;20046;-77
2021/11/07 09:23:03;;;;;;;7.35;1.88;;;9.50;89.40;;;;;;4951620;28;20369;-76
2021/11/07 09:25:43;;;;;;;15.63;2.70;;;9.50;88.50;;;;;;4968533;28;20034;-76
2021/11/07 09:28:29;;;;;;;11.10;2.42;;;9.50;88.70;;;;;;4952823;28;20023;-76
2021/11/07 09:31:13;;;;;;;12.80;2.70;;;9.60;89.00;;;;;;4963846;28;20035;-76
2021/11/07 09:36:21;;;;;;;10.27;2.13;;;9.80;88.30;;;;;;4958018;28;20037;-76
2021/11/07 09:38:53;;;;;;;14.20;2.38;;;9.80;87.80;;;;;;4964024;28;20022;-76
2021/11/07 09:41:37;;;;;;;13.30;1.90;;;9.80;87.70;;;;;;4945392;28;20138;-77
2021/11/07 09:44:07;;;;;;;11.60;2.50;;;9.90;88.20;;;;;;4961330;28;20109;-76
2021/11/07 09:46:46;;;;;;;13.07;2.60;;;9.80;87.00;;;;;;4947702;28;20121;-76
2021/11/07 09:49:21;;;;;;;9.70;2.03;;;10.10;87.10;;;;;;4947790;28;21186;-77
2021/11/07 09:51:55;;;;;;;10.38;2.25;;;10.10;87.60;;;;;;4964051;28;20097;-77
2021/11/07 09:54:21;;;;;;;13.75;2.22;;;10.10;86.80;;;;;;4967270;28;20193;-77
2021/11/07 09:56:51;;;;;;;14.27;2.47;;;10.10;86.80;;;;;;4947646;28;20154;-76
2021/11/07 09:59:17;;;;;;;13.98;3.10;;;10.10;86.70;;;;;;4965968;28;20142;-77
2021/11/07 10:01:45;;;;;;;13.63;2.65;;;10.00;86.90;;;;;;4965746;28;20105;-76
2021/11/07 10:04:12;;;;;;;7.50;2.25;;;10.10;86.70;;;;;;4963008;28;20141;-76
2021/11/07 10:06:44;;;;;;;10.77;2.42;;;10.00;87.10;;;;;;4970489;28;20037;-76
2021/11/07 10:09:11;;;;;;;17.10;2.97;;;10.00;86.50;;;;;;4959553;28;20050;-76
2021/11/07 10:12:10;;;;;;;12.60;2.70;;;10.20;86.50;;;;;;4957742;28;20298;-77
2021/11/07 10:14:53;;;;;;;12.10;2.38;;;10.20;86.10;;;;;;4964866;28;20022;-75
2021/11/07 10:17:30;;;;;;;11.88;2.22;;;10.30;86.30;;;;;;4958382;28;20474;-76
2021/11/07 10:20:23;;;;;;;11.27;2.38;;;10.30;85.20;;;;;;4943345;28;20597;-75
2021/11/07 10:23:15;;;;;;;14.18;2.70;;;10.30;85.20;;;;;;4957972;28;20097;-76
2021/11/07 10:25:49;;;;;;;14.75;2.40;;;10.30;85.90;;;;;;4934832;28;20178;-76
2021/11/07 10:28:30;;;;;;;12.98;2.40;;;10.30;83.60;;;;;;4952309;28;20030;-76
2021/11/07 10:31:11;;;;;;;14.10;2.78;;;10.40;84.40;;;;;;4961125;28;20019;-76
2021/11/07 10:44:52;;;;;;;14.35;2.28;;;10.60;82.20;;;;;;4971238;28;20030;-76
2021/11/07 10:47:37;;;;;;;13.82;2.78;;;10.70;82.00;;;;;;4947718;28;20027;-76
2021/11/07 10:53:02;;;;;;;10.50;2.40;;;10.40;81.20;;;;;;4958993;28;20045;-76
2021/11/07 10:55:33;;;;;;;13.38;2.67;;;10.30;81.80;;;;;;4938333;28;20074;-73
2021/11/07 10:58:02;;;;;;;12.40;2.20;;;10.20;82.70;;;;;;4967577;28;20074;-76
2021/11/07 11:00:42;;;;;;;15.93;2.85;;;10.10;83.80;;;;;;4948005;28;20130;-76
2021/11/07 11:03:10;;;;;;;13.07;2.63;;;10.10;84.30;;;;;;4963720;28;20354;-76
2021/11/07 11:05:45;;;;;;;11.02;2.35;;;10.10;83.80;;;;;;4967342;28;20109;-76
2021/11/07 11:08:16;;;;;;;9.85;1.92;;;10.30;83.60;;;;;;4952436;28;20037;-75
2021/11/07 11:10:53;;;;;;;;;;;10.40;81.60;;;;;;4959217;28;20102;-75
2021/11/07 11:13:34;;;;;;;14.00;2.35;;;10.50;82.00;;;;;;4966531;28;20255;-76
2021/11/07 11:19:36;;;;;;;9.50;2.60;;;10.60;81.20;;;;;;4959124;28;20200;-76
2021/11/07 11:28:04;;;;;;;10.68;2.63;;;11.80;78.60;;;;;;4958477;28;20159;-76
2021/11/07 11:36:06;;;;;;;15.43;2.88;;;11.60;80.00;;;;;;4964692;28;20516;-76
2021/11/07 11:38:43;;;;;;;18.70;3.33;;;11.40;77.50;;;;;;4952714;28;20042;-76
2021/11/07 11:41:27;;;;;;;16.92;2.95;;;11.40;78.20;;;;;;4961346;28;20362;-76
2021/11/07 11:43:54;;;;;;;11.00;2.40;;;11.50;78.20;;;;;;4947333;28;20522;-75
2021/11/07 11:46:26;;;;;;;17.27;3.17;;;11.40;79.00;;;;;;4961921;28;20572;-76
2021/11/07 11:49:28;;;;;;;15.73;3.15;;;11.60;76.80;;;;;;4963489;28;20062;-76
2021/11/07 12:00:07;;;;;;;18.90;3.25;;;11.50;77.60;;;;;;4964432;28;20113;-75
2021/11/07 12:03:03;;;;;;;14.77;2.55;;;11.20;78.30;;;;;;4969011;28;20042;-76
2021/11/07 12:05:40;;;;;;;10.68;2.40;;;11.00;79.40;;;;;;4973056;28;20018;-75
2021/11/07 12:08:19;;;;;;;14.48;2.55;;;10.90;80.40;;;;;;4947591;28;20110;-76
2021/11/07 12:11:00;;;;;;;12.43;2.08;;;11.00;80.40;;;;;;4964196;28;20492;-75
2021/11/07 12:16:13;;;;;;;10.38;2.00;;;11.00;77.40;;;;;;4966210;28;20057;-75
2021/11/07 12:19:03;;;;;;;7.38;2.03;;;10.80;78.20;;;;;;4947795;28;20045;-75
2021/11/07 12:21:47;;;;;;;11.90;2.42;;;10.50;79.50;;;;;;4964226;28;20147;-76
2021/11/07 12:24:14;;;;;;;13.02;2.47;;;10.20;80.70;;;;;;4936673;28;20022;-75
2021/11/07 12:26:39;;;;;;;14.27;2.83;;;10.10;81.90;;;;;;4962471;28;20194;-75
2021/11/07 12:29:05;;;;;;;11.02;2.58;;;10.60;80.90;;;;;;4953267;28;20051;-75
2021/11/07 12:31:32;;;;;;;19.23;2.80;;;11.10;79.70;;;;;;4946015;28;20026;-76
2021/11/07 12:34:21;;;;;;;7.47;1.88;;;11.00;79.90;;;;;;4961077;28;20295;-76
2021/11/07 12:42:37;;;;;;;14.90;2.72;;;10.70;81.60;;;;;;4973062;28;20068;-75
2021/11/07 12:45:36;;;;;;;12.27;2.80;;;10.60;81.90;;;;;;4962874;28;20019;-76
2021/11/07 12:48:05;;;;;;;19.70;3.42;;;10.80;82.20;;;;;;4959197;28;20038;-76
2021/11/07 12:50:55;;;;;;;13.48;2.90;;;11.30;80.60;;;;;;4960048;28;20034;-77
2021/11/07 12:53:24;;;;;;;16.00;2.85;;;11.50;80.00;;;;;;4953891;28;20061;-76
2021/11/07 12:55:50;;;;;;;14.93;2.53;;;11.70;79.00;;;;;;4962273;28;20087;-76
2021/11/07 12:58:17;;;;;;;17.02;2.65;;;11.30;77.90;;;;;;4961210;28;20353;-76
2021/11/07 13:00:43;;;;;;;12.95;2.78;;;11.20;78.40;;;;;;4946373;28;20523;-76
2021/11/07 13:03:11;;;;;;;17.10;2.80;;;11.30;77.80;;;;;;4961158;28;20043;-75
2021/11/07 13:05:38;;;;;;;17.85;2.80;;;11.20;77.30;;;;;;4959838;28;20027;-75
2021/11/07 13:08:06;;;;;;;9.45;2.15;;;11.00;77.50;;;;;;4947834;28;20394;-75
2021/11/07 13:13:26;;;;;;;12.98;2.17;;;10.90;79.00;;;;;;4962264;28;20049;-76
2021/11/07 13:16:07;;;;;;;13.10;2.45;;;10.80;78.50;;;;;;4967278;28;20034;-76
2021/11/07 13:24:09;;;;;;;13.57;2.22;;;10.50;77.90;;;;;;4967713;28;20125;-76
2021/11/07 13:34:59;;;;;;;13.02;2.70;;;10.70;77.30;;;;;;4967256;28;20128;-75
2021/11/07 13:37:36;;;;;;;15.35;2.50;;;10.50;80.10;;;;;;4954048;28;20653;-76
2021/11/07 13:40:13;;;;;;;13.80;2.47;;;10.20;82.60;;;;;;4959657;28;20030;-76
2021/11/07 13:42:42;;;;;;;21.63;2.40;;;9.70;86.00;;;;;;4955907;28;20111;-76
2021/11/07 13:45:16;;;;;;;14.30;2.45;;;9.40;87.40;;;;;;4964859;28;20448;-75
2021/11/07 13:47:44;;;;;;;15.52;2.28;;;9.50;88.00;;;;;;4971462;28;20054;-76
2021/11/07 13:50:13;;;;;;;10.98;2.13;;;9.80;86.50;;;;;;4957996;28;20379;-74
2021/11/07 13:52:41;;;;;;;11.52;2.17;;;10.00;85.10;;;;;;4961916;28;20742;-77
2021/11/07 13:55:18;;;;;;;12.88;2.45;;;10.10;84.10;;;;;;4964307;28;20030;-76
2021/11/07 13:57:44;;;;;;;15.18;2.42;;;10.10;84.40;;;;;;4970310;28;20065;-76
2021/11/07 14:00:12;;;;;;;8.95;2.10;;;10.20;84.00;;;;;;4960469;28;20027;-76
2021/11/07 14:02:45;;;;;;;8.52;1.95;;;10.40;83.80;;;;;;4961316;28;20093;-76
2021/11/07 14:05:11;;;;;;;12.73;2.05;;;10.40;83.40;;;;;;4944198;28;20071;-76
2021/11/07 14:07:37;;;;;;;13.07;2.35;;;10.20;84.10;;;;;;4943222;28;20047;-76
2021/11/07 14:10:13;;;;;;;11.60;1.67;;;10.10;84.10;;;;;;4943005;28;20544;-76
2021/11/07 14:12:57;;;;;;;14.05;2.53;;;10.20;82.90;;;;;;4944266;28;20119;-75
2021/11/07 14:15:30;;;;;;;8.88;2.25;;;10.20;83.50;;;;;;4955495;28;20074;-76
2021/11/07 14:18:22;;;;;;;10.48;2.10;;;10.30;83.10;;;;;;4968629;28;20117;-76
2021/11/07 14:20:51;;;;;;;9.82;1.77;;;10.10;82.60;;;;;;4953478;28;20030;-76
2021/11/07 14:23:40;;;;;;;8.25;1.98;;;10.00;82.10;;;;;;4947344;28;20066;-76
2021/11/07 14:26:08;;;;;;;13.38;2.45;;;9.80;83.20;;;;;;4938691;28;20039;-76
2021/11/07 14:28:57;;;;;;;9.23;1.70;;;9.80;83.90;;;;;;4961620;28;20030;-76
2021/11/07 14:31:28;;;;;;;11.25;1.95;;;9.60;84.70;;;;;;4962887;28;20405;-74
2021/11/07 14:34:01;;;;;;;;;;;9.50;84.50;;;;;;4966634;28;20106;-76
2021/11/07 14:39:06;;;;;;;10.52;2.15;;;9.50;84.80;;;;;;4965332;28;20113;-77
2021/11/07 14:41:46;;;;;;;13.60;2.33;;;9.50;85.10;;;;;;4988541;23;20484;-81
2021/11/07 14:44:37;;;;;;;12.38;2.38;;;9.40;85.60;;;;;;4982046;28;20029;-81
2021/11/07 14:55:38;;;;;;;13.45;2.70;;;9.40;83.50;;;;;;4968441;28;20046;-81
2021/11/07 15:01:14;;;;;;;12.33;2.23;;;9.40;84.30;;;;;;4971904;28;20094;-81
2021/11/07 15:03:52;;;;;;;13.68;2.70;;;9.20;85.70;;;;;;4949820;28;20121;-78
2021/11/07 15:06:31;;;;;;;11.68;2.40;;;9.10;86.90;;;;;;4962912;28;20031;-81
2021/11/07 15:09:04;;;;;;;15.55;2.53;;;9.10;86.30;;;;;;4969480;28;20061;-81
2021/11/07 15:17:02;;;;;;;11.35;2.28;;;8.70;90.50;;;;;;4972907;28;20468;-80
2021/11/07 15:19:40;;;;;;;21.85;2.70;;;8.70;90.70;;;;;;4970093;28;20030;-79
2021/11/07 15:22:09;;;;;;;15.55;2.50;;;8.50;91.90;;;;;;4965158;28;20400;-79